createdAt,value
2018-11-05T00:00:50.228Z,64.47
2018-11-05T00:03:25.939Z,67.40
2018-11-05T00:06:01.505Z,63.90
2018-11-05T00:08:37.056Z,67.77
2018-11-05T00:11:12.839Z,68.97
2018-11-05T00:13:48.615Z,64.67
2018-11-05T00:16:24.337Z,67.90
2018-11-05T00:19:00.093Z,67.67
2018-11-05T00:21:35.924Z,68.27
2018-11-05T00:24:11.535Z,67.90
2018-11-05T00:26:47.191Z,67.50
2018-11-05T00:29:22.923Z,69.03
2018-11-05T00:31:58.604Z,71.90
2018-11-05T00:34:34.270Z,69.20
2018-11-05T00:37:10.177Z,69.53
2018-11-05T00:39:45.933Z,72.13
2018-11-05T00:42:27.930Z,68.60
2018-11-05T00:45:04.003Z,67.13
2018-11-05T00:47:39.773Z,68.90
2018-11-05T00:50:17.072Z,68.67
2018-11-05T00:52:54.436Z,70.80
2018-11-05T00:55:34.081Z,73.17
2018-11-05T00:58:09.607Z,65.47
2018-11-05T01:00:45.060Z,66.87
2018-11-05T01:03:20.789Z,63.60
2018-11-05T01:05:56.535Z,69.43
2018-11-05T01:08:32.054Z,63.43
2018-11-05T01:11:07.588Z,67.73
2018-11-05T01:13:43.068Z,65.80
2018-11-05T01:16:18.636Z,66.83
2018-11-05T01:18:54.337Z,69.60
2018-11-05T01:21:29.794Z,62.10
2018-11-05T01:24:05.844Z,65.03
2018-11-05T01:26:43.380Z,61.33
2018-11-05T01:29:18.904Z,61.77
2018-11-05T01:31:54.677Z,62.27
2018-11-05T01:34:30.457Z,59.37
2018-11-05T01:37:06.709Z,60.00
2018-11-05T01:39:42.580Z,57.53
2018-11-05T01:42:18.172Z,59.10
2018-11-05T01:44:53.595Z,60.10
2018-11-05T01:47:29.521Z,60.27
2018-11-05T01:50:06.238Z,56.43
2018-11-05T01:52:42.932Z,49.17
2018-11-05T01:55:28.755Z,55.40
2018-11-05T01:58:04.812Z,55.17
2018-11-05T02:00:40.446Z,47.43
2018-11-05T02:03:15.978Z,47.97
2018-11-05T02:05:51.724Z,48.90
2018-11-05T02:08:27.280Z,50.23
2018-11-05T02:11:02.821Z,46.60
2018-11-05T02:13:38.703Z,46.60
2018-11-05T02:16:14.259Z,50.20
2018-11-05T02:18:49.938Z,53.43
2018-11-05T02:21:25.436Z,54.30
2018-11-05T02:24:00.956Z,51.63
2018-11-05T02:26:36.753Z,52.27
2018-11-05T02:29:12.485Z,51.50
2018-11-05T02:31:47.932Z,50.80
2018-11-05T02:34:23.352Z,51.97
2018-11-05T02:36:58.985Z,54.77
2018-11-05T02:39:34.565Z,53.13
2018-11-05T02:42:10.262Z,51.50
2018-11-05T02:44:45.965Z,53.13
2018-11-05T02:47:22.234Z,56.83
2018-11-05T02:49:57.798Z,53.37
2018-11-05T02:52:33.421Z,53.03
2018-11-05T02:55:09.419Z,54.90
2018-11-05T02:57:49.404Z,50.50
2018-11-05T03:00:34.637Z,51.03
2018-11-05T03:03:10.433Z,49.93
2018-11-05T03:05:46.068Z,51.93
2018-11-05T03:08:21.855Z,54.87
2018-11-05T03:10:57.546Z,53.90
2018-11-05T03:13:33.054Z,52.67
2018-11-05T03:16:08.431Z,53.50
2018-11-05T03:18:44.056Z,55.53
2018-11-05T03:21:19.564Z,55.13
2018-11-05T03:23:55.395Z,56.17
2018-11-05T03:26:31.088Z,57.10
2018-11-05T03:29:07.772Z,57.20
2018-11-05T03:31:43.498Z,56.93
2018-11-05T03:34:19.037Z,59.30
2018-11-05T03:36:54.720Z,56.10
2018-11-05T03:39:30.213Z,56.00
2018-11-05T03:42:06.373Z,57.43
2018-11-05T03:44:41.933Z,51.93
2018-11-05T03:47:17.763Z,53.87
2018-11-05T03:49:53.551Z,50.30
2018-11-05T03:52:29.304Z,53.30
2018-11-05T03:55:05.064Z,52.53
2018-11-05T03:57:40.664Z,53.23
2018-11-05T04:00:33.690Z,51.63
2018-11-05T04:03:09.107Z,48.80
2018-11-05T04:05:45.248Z,49.97
2018-11-05T04:08:20.781Z,47.27
2018-11-05T04:10:56.230Z,48.70
2018-11-05T04:13:31.892Z,49.67
2018-11-05T04:16:07.461Z,48.80
2018-11-05T04:18:43.210Z,48.50
2018-11-05T04:21:18.817Z,50.33
2018-11-05T04:23:54.458Z,46.80
2018-11-05T04:26:29.845Z,47.57
2018-11-05T04:29:05.823Z,47.77
2018-11-05T04:31:41.688Z,48.83
2018-11-05T04:34:17.341Z,47.10
2018-11-05T04:36:52.741Z,45.47
2018-11-05T04:39:28.381Z,47.77
2018-11-05T04:42:03.973Z,45.13
2018-11-05T04:44:39.552Z,47.00
2018-11-05T04:47:15.590Z,47.17
2018-11-05T04:49:51.292Z,45.80
2018-11-05T04:52:26.719Z,42.00
2018-11-05T04:55:02.430Z,46.20
2018-11-05T04:57:38.699Z,46.30
2018-11-05T05:00:27.321Z,47.77
2018-11-05T05:03:03.131Z,50.17
2018-11-05T05:05:38.718Z,49.67
2018-11-05T05:08:14.808Z,50.40
2018-11-05T05:10:50.727Z,48.10
2018-11-05T05:13:26.409Z,51.87
2018-11-05T05:16:01.939Z,51.13
2018-11-05T05:18:37.501Z,49.30
2018-11-05T05:21:13.447Z,51.13
2018-11-05T05:23:49.068Z,49.47
2018-11-05T05:26:24.929Z,48.97
2018-11-05T05:29:00.365Z,48.90
2018-11-05T05:31:35.989Z,45.50
2018-11-05T05:34:11.780Z,47.50
2018-11-05T05:36:47.305Z,45.30
2018-11-05T05:39:23.500Z,46.57
2018-11-05T05:41:58.960Z,45.93
2018-11-05T05:44:34.536Z,46.77
2018-11-05T05:47:10.365Z,44.07
2018-11-05T05:49:46.110Z,45.03
2018-11-05T05:52:21.799Z,43.60
2018-11-05T05:54:57.353Z,43.63
2018-11-05T05:57:33.030Z,37.20
2018-11-05T06:00:11.387Z,36.43
2018-11-05T06:02:52.321Z,37.80
2018-11-05T06:05:35.644Z,37.00
2018-11-05T06:08:11.072Z,41.33
2018-11-05T06:10:46.537Z,45.70
2018-11-05T06:13:22.018Z,53.87
2018-11-05T06:15:57.828Z,57.03
2018-11-05T06:18:33.546Z,66.37
2018-11-05T06:21:09.200Z,62.97
2018-11-05T06:23:45.299Z,67.80
2018-11-05T06:26:20.956Z,62.77
2018-11-05T06:28:56.589Z,66.50
2018-11-05T06:31:32.057Z,69.47
2018-11-05T06:34:07.590Z,65.67
2018-11-05T06:36:43.185Z,71.30
2018-11-05T06:39:18.695Z,67.23
2018-11-05T06:41:54.377Z,72.87
2018-11-05T06:44:30.118Z,63.73
2018-11-05T06:47:06.205Z,67.73
2018-11-05T06:49:41.803Z,75.43
2018-11-05T06:52:17.196Z,75.43
2018-11-05T06:54:52.761Z,75.60
2018-11-05T06:57:28.432Z,71.20
2018-11-05T07:00:05.250Z,70.03
2018-11-05T07:02:40.951Z,69.33
2018-11-05T07:05:26.206Z,68.00
2018-11-05T07:08:02.010Z,63.43
2018-11-05T07:10:37.612Z,63.70
2018-11-05T07:13:13.511Z,63.83
2018-11-05T07:15:49.044Z,62.80
2018-11-05T07:18:24.810Z,63.33
2018-11-05T07:21:00.561Z,66.97
2018-11-05T07:23:36.206Z,61.77
2018-11-05T07:26:11.895Z,60.93
2018-11-05T07:28:47.766Z,62.57
2018-11-05T07:31:23.513Z,64.63
2018-11-05T07:34:00.043Z,62.50
2018-11-05T07:36:35.582Z,61.67
2018-11-05T07:39:12.539Z,63.70
2018-11-05T07:41:48.064Z,61.13
2018-11-05T07:44:23.752Z,65.10
2018-11-05T07:46:59.145Z,67.30
2018-11-05T07:49:35.009Z,69.63
2018-11-05T07:52:10.828Z,67.83
2018-11-05T07:54:46.313Z,63.70
2018-11-05T07:57:21.876Z,66.00
2018-11-05T07:59:57.422Z,63.77
2018-11-05T08:02:32.999Z,67.70
2018-11-05T08:05:09.132Z,64.90
2018-11-05T08:07:46.409Z,64.40
2018-11-05T08:10:31.523Z,64.90
2018-11-05T08:13:06.932Z,62.43
2018-11-05T08:15:42.373Z,62.30
2018-11-05T08:18:17.939Z,60.23
2018-11-05T08:20:53.523Z,62.67
2018-11-05T08:23:29.165Z,60.80
2018-11-05T08:26:04.879Z,60.50
2018-11-05T08:28:40.373Z,62.50
2018-11-05T08:31:15.881Z,61.00
2018-11-05T08:33:51.652Z,66.83
2018-11-05T08:36:27.462Z,62.43
2018-11-05T08:39:03.977Z,60.00
2018-11-05T08:41:40.037Z,63.60
2018-11-05T08:44:15.659Z,62.67
2018-11-05T08:46:51.163Z,61.47
2018-11-05T08:49:27.593Z,63.27
2018-11-05T08:52:03.238Z,60.17
2018-11-05T08:54:38.929Z,57.67
2018-11-05T08:57:14.338Z,62.40
2018-11-05T08:59:49.887Z,59.97
2018-11-05T09:02:25.559Z,62.63
2018-11-05T09:05:01.148Z,60.03
2018-11-05T09:07:36.836Z,61.87
2018-11-05T09:10:12.608Z,61.63
2018-11-05T09:12:53.932Z,64.30
2018-11-05T09:15:30.663Z,65.53
2018-11-05T09:18:06.577Z,67.17
2018-11-05T09:20:42.343Z,65.50
2018-11-05T09:23:18.030Z,62.90
2018-11-05T09:25:53.826Z,64.17
2018-11-05T09:28:29.279Z,68.33
2018-11-05T09:31:04.917Z,71.37
2018-11-05T09:33:40.351Z,70.67
2018-11-05T09:36:16.227Z,72.03
2018-11-05T09:38:51.943Z,71.13
2018-11-05T09:41:27.556Z,71.73
2018-11-05T09:44:03.160Z,70.90
2018-11-05T09:46:38.645Z,67.27
2018-11-05T09:49:14.208Z,66.33
2018-11-05T09:51:49.749Z,66.03
2018-11-05T09:54:25.310Z,66.17
2018-11-05T09:57:00.849Z,65.87
2018-11-05T09:59:37.058Z,66.50
2018-11-05T10:02:12.796Z,67.23
2018-11-05T10:04:48.670Z,68.40
2018-11-05T10:07:24.240Z,71.10
2018-11-05T10:09:59.765Z,70.67
2018-11-05T10:12:35.178Z,70.53
2018-11-05T10:15:12.012Z,71.10
2018-11-05T10:17:53.436Z,70.13
2018-11-05T10:20:30.853Z,68.67
2018-11-05T10:23:06.603Z,71.03
2018-11-05T10:25:42.006Z,72.33
2018-11-05T10:28:17.706Z,72.03
2018-11-05T10:30:53.320Z,70.70
2018-11-05T10:33:29.202Z,68.67
2018-11-05T10:36:05.706Z,68.40
2018-11-05T10:38:41.215Z,67.67
2018-11-05T10:41:17.352Z,62.77
2018-11-05T10:43:52.853Z,69.70
2018-11-05T10:46:28.363Z,62.50
2018-11-05T10:49:03.845Z,60.70
2018-11-05T10:51:39.483Z,58.67
2018-11-05T10:54:15.962Z,62.63
2018-11-05T10:56:51.611Z,59.07
2018-11-05T10:59:27.505Z,60.80
2018-11-05T11:02:08.479Z,60.63
2018-11-05T11:04:44.104Z,60.07
2018-11-05T11:07:19.565Z,56.50
2018-11-05T11:09:55.056Z,61.33
2018-11-05T11:12:30.668Z,60.07
2018-11-05T11:15:07.414Z,57.67
2018-11-05T11:17:43.157Z,56.50
2018-11-05T11:20:25.888Z,59.27
2018-11-05T11:23:01.416Z,56.57
2018-11-05T11:25:44.566Z,57.80
2018-11-05T11:28:20.251Z,55.07
2018-11-05T11:30:56.062Z,55.57
2018-11-05T11:33:31.880Z,58.17
2018-11-05T11:36:07.335Z,57.83
2018-11-05T11:38:43.076Z,59.07
2018-11-05T11:41:18.705Z,59.03
2018-11-05T11:43:54.511Z,61.10
2018-11-05T11:46:30.286Z,62.70
2018-11-05T11:49:06.663Z,60.70
2018-11-05T11:51:42.150Z,61.80
2018-11-05T11:54:17.820Z,60.93
2018-11-05T11:56:53.436Z,61.20
2018-11-05T11:59:29.098Z,65.23
2018-11-05T12:02:10.281Z,63.90
2018-11-05T12:04:46.064Z,66.00
2018-11-05T12:07:21.546Z,63.90
2018-11-05T12:09:56.992Z,64.83
2018-11-05T12:12:32.625Z,64.20
2018-11-05T12:15:08.642Z,62.77
2018-11-05T12:17:50.768Z,61.80
2018-11-05T12:20:30.214Z,58.97
2018-11-05T12:23:06.141Z,60.00
2018-11-05T12:25:41.606Z,62.50
2018-11-05T12:28:17.197Z,62.47
2018-11-05T12:30:52.802Z,62.13
2018-11-05T12:33:28.375Z,61.30
2018-11-05T12:36:04.142Z,63.13
2018-11-05T12:38:39.612Z,58.13
2018-11-05T12:41:15.455Z,62.50
2018-11-05T12:43:50.987Z,61.03
2018-11-05T12:46:26.494Z,58.47
2018-11-05T12:49:01.924Z,57.80
2018-11-05T12:51:37.786Z,59.30
2018-11-05T12:54:13.290Z,58.87
2018-11-05T12:56:49.053Z,62.00
2018-11-05T12:59:24.821Z,62.37
2018-11-05T13:02:00.271Z,67.27
2018-11-05T13:04:35.798Z,67.10
2018-11-05T13:07:11.466Z,63.17
2018-11-05T13:09:47.292Z,65.83
2018-11-05T13:12:23.066Z,64.03
2018-11-05T13:14:58.515Z,66.90
2018-11-05T13:17:34.718Z,61.07
2018-11-05T13:20:22.148Z,62.10
2018-11-05T13:23:03.477Z,65.10
2018-11-05T13:25:38.918Z,63.87
2018-11-05T13:28:14.414Z,60.30
2018-11-05T13:30:50.206Z,60.43
2018-11-05T13:33:25.869Z,58.70
2018-11-05T13:36:01.406Z,56.93
2018-11-05T13:38:37.421Z,57.37
2018-11-05T13:41:13.191Z,55.13
2018-11-05T13:43:48.989Z,55.23
2018-11-05T13:46:24.869Z,57.30
2018-11-05T13:49:01.157Z,54.47
2018-11-05T13:51:36.433Z,54.60
2018-11-05T13:54:12.193Z,52.70
2018-11-05T13:56:47.701Z,51.70
2018-11-05T13:59:23.212Z,52.13
2018-11-05T14:01:58.721Z,49.53
2018-11-05T14:04:34.354Z,52.50
2018-11-05T14:07:10.030Z,52.70
2018-11-05T14:09:45.714Z,52.87
2018-11-05T14:12:21.240Z,50.83
2018-11-05T14:14:56.991Z,48.80
2018-11-05T14:17:32.480Z,44.80
2018-11-05T14:20:09.579Z,45.73
2018-11-05T14:22:53.487Z,45.23
2018-11-05T14:25:35.594Z,42.30
2018-11-05T14:28:11.662Z,44.23
2018-11-05T14:30:47.199Z,44.00
2018-11-05T14:33:22.670Z,41.57
2018-11-05T14:35:58.326Z,39.83
2018-11-05T14:38:34.368Z,41.57
2018-11-05T14:41:10.285Z,40.93
2018-11-05T14:43:45.969Z,43.37
2018-11-05T14:46:21.965Z,39.67
2018-11-05T14:48:57.383Z,39.73
2018-11-05T14:51:33.339Z,40.13
2018-11-05T14:54:09.716Z,39.17
2018-11-05T14:56:45.309Z,38.90
2018-11-05T14:59:21.012Z,38.20
2018-11-05T15:02:02.100Z,38.90
2018-11-05T15:04:37.980Z,38.37
2018-11-05T15:07:13.832Z,40.00
2018-11-05T15:09:49.210Z,41.20
2018-11-05T15:12:25.030Z,38.57
2018-11-05T15:15:00.674Z,38.80
2018-11-05T15:17:36.555Z,35.33
2018-11-05T15:22:58.188Z,34.83
2018-11-05T15:25:33.765Z,36.80
2018-11-05T15:28:09.722Z,36.30
2018-11-05T15:30:45.443Z,34.37
2018-11-05T15:33:20.982Z,34.60
2018-11-05T15:35:56.753Z,34.17
2018-11-05T15:38:32.167Z,34.53
2018-11-05T15:41:08.411Z,35.97
2018-11-05T15:43:44.083Z,35.83
2018-11-05T15:46:19.682Z,36.60
2018-11-05T15:48:55.220Z,33.60
2018-11-05T15:51:31.782Z,36.03
2018-11-05T15:54:07.628Z,34.90
2018-11-05T15:56:43.472Z,34.17
2018-11-05T15:59:19.381Z,34.43
2018-11-05T16:01:54.758Z,34.03
2018-11-05T16:04:30.636Z,33.70
2018-11-05T16:07:06.424Z,34.20
2018-11-05T16:09:41.791Z,33.67
2018-11-05T16:12:17.483Z,35.17
2018-11-05T16:14:53.317Z,33.90
2018-11-05T16:17:29.471Z,36.13
2018-11-05T16:20:06.341Z,34.50
2018-11-05T16:22:41.724Z,32.97
2018-11-05T16:25:27.222Z,35.50
2018-11-05T16:28:02.677Z,33.40
2018-11-05T16:30:38.326Z,33.70
2018-11-05T16:33:14.153Z,33.17
2018-11-05T16:35:50.015Z,35.07
2018-11-05T16:38:25.828Z,32.73
2018-11-05T16:41:01.881Z,34.37
2018-11-05T16:43:37.605Z,32.23
2018-11-05T16:46:13.136Z,33.13
2018-11-05T16:48:48.880Z,35.07
2018-11-05T16:51:24.445Z,34.20
2018-11-05T16:54:00.068Z,37.03
2018-11-05T16:56:36.265Z,31.80
2018-11-05T16:59:12.097Z,34.00
2018-11-05T17:01:48.150Z,34.10
2018-11-05T17:04:23.708Z,35.20
2018-11-05T17:06:59.249Z,34.10
2018-11-05T17:09:34.902Z,38.70
2018-11-05T17:12:10.581Z,37.10
2018-11-05T17:14:45.962Z,38.07
2018-11-05T17:17:21.441Z,41.47
2018-11-05T17:19:57.097Z,41.33
2018-11-05T17:22:32.613Z,43.90
2018-11-05T17:25:09.358Z,43.47
2018-11-05T17:27:48.649Z,46.97
2018-11-05T17:30:33.494Z,47.33
2018-11-05T17:33:09.018Z,46.30
2018-11-05T17:35:44.620Z,49.97
2018-11-05T17:38:20.076Z,49.60
2018-11-05T17:40:55.693Z,50.43
2018-11-05T17:43:31.656Z,49.40
2018-11-05T17:46:07.136Z,53.93
2018-11-05T17:48:42.637Z,50.13
2018-11-05T17:51:18.186Z,53.33
2018-11-05T17:53:53.780Z,51.90
2018-11-05T17:56:30.105Z,51.73
2018-11-05T17:59:06.537Z,52.77
2018-11-05T18:01:42.220Z,53.63
2018-11-05T18:04:18.733Z,56.07
2018-11-05T18:06:54.481Z,51.83
2018-11-05T18:09:30.179Z,55.20
2018-11-05T18:12:05.909Z,53.47
2018-11-05T18:14:41.568Z,54.33
2018-11-05T18:17:17.363Z,55.40
2018-11-05T18:19:53.123Z,53.00
2018-11-05T18:22:28.497Z,54.20
2018-11-05T18:25:04.218Z,52.60
2018-11-05T18:27:39.820Z,50.73
2018-11-05T18:30:24.569Z,51.73
2018-11-05T18:33:00.033Z,50.27
2018-11-05T18:35:35.802Z,50.00
2018-11-05T18:38:11.664Z,51.97
2018-11-05T18:40:47.288Z,48.33
2018-11-05T18:43:23.964Z,49.60
2018-11-05T18:45:59.577Z,50.23
2018-11-05T18:48:35.102Z,48.57
2018-11-05T18:51:10.577Z,47.07
2018-11-05T18:53:46.176Z,50.37
2018-11-05T18:56:21.730Z,47.70
2018-11-05T18:58:57.946Z,47.80
2018-11-05T19:01:35.904Z,50.30
2018-11-05T19:04:11.597Z,51.30
2018-11-05T19:06:47.453Z,50.63
2018-11-05T19:09:23.094Z,50.67
2018-11-05T19:11:58.822Z,49.70
2018-11-05T19:14:34.391Z,53.17
2018-11-05T19:17:09.766Z,50.50
2018-11-05T19:19:45.154Z,49.07
2018-11-05T19:22:21.289Z,51.63
2018-11-05T19:24:57.775Z,49.63
2018-11-05T19:27:33.295Z,49.63
2018-11-05T19:30:14.277Z,48.73
2018-11-05T19:32:58.497Z,46.17
2018-11-05T19:35:35.264Z,46.30
2018-11-05T19:38:10.877Z,47.30
2018-11-05T19:40:46.634Z,47.00
2018-11-05T19:43:22.390Z,46.87
2018-11-05T19:45:58.102Z,48.87
2018-11-05T19:48:34.383Z,44.90
2018-11-05T19:51:12.451Z,46.73
2018-11-05T19:53:48.027Z,46.93
2018-11-05T19:56:24.672Z,45.47
2018-11-05T19:59:00.572Z,45.17
2018-11-05T20:01:37.350Z,46.70
2018-11-05T20:04:13.315Z,46.43
2018-11-05T20:06:49.609Z,47.20
2018-11-05T20:09:25.553Z,47.37
2018-11-05T20:12:01.504Z,44.50
2018-11-05T20:14:37.105Z,45.40
2018-11-05T20:17:12.521Z,48.70
2018-11-05T20:19:47.986Z,48.20
2018-11-05T20:22:23.806Z,46.50
2018-11-05T20:24:59.913Z,45.87
2018-11-05T20:27:35.753Z,45.33
2018-11-05T20:33:00.802Z,44.83
2018-11-05T20:35:41.076Z,46.20
2018-11-05T20:38:17.114Z,47.13
2018-11-05T20:40:52.838Z,45.13
2018-11-05T20:43:28.891Z,46.47
2018-11-05T20:46:05.623Z,45.90
2018-11-05T20:48:41.669Z,45.83
2018-11-05T20:51:17.362Z,43.30
2018-11-05T20:53:53.129Z,48.40
2018-11-05T20:56:28.903Z,46.10
2018-11-05T20:59:04.818Z,45.87
2018-11-05T21:01:40.426Z,47.40
2018-11-05T21:04:16.404Z,47.30
2018-11-05T21:06:53.514Z,45.97
2018-11-05T21:09:29.305Z,45.73
2018-11-05T21:12:05.863Z,45.00
2018-11-05T21:14:42.224Z,48.00
2018-11-05T21:17:17.901Z,44.83
2018-11-05T21:19:53.428Z,47.80
2018-11-05T21:22:29.085Z,45.97
2018-11-05T21:25:05.340Z,47.97
2018-11-05T21:27:41.585Z,46.63
2018-11-05T21:30:32.113Z,45.37
2018-11-05T21:33:07.650Z,46.60
2018-11-05T21:35:50.183Z,45.40
2018-11-05T21:38:25.762Z,46.17
2018-11-05T21:41:01.504Z,47.07
2018-11-05T21:43:37.313Z,48.20
2018-11-05T21:46:13.157Z,46.63
2018-11-05T21:48:48.640Z,48.37
2018-11-05T21:51:24.053Z,46.40
2018-11-05T21:54:00.157Z,49.30
2018-11-05T21:56:36.184Z,52.40
2018-11-05T21:59:11.756Z,53.30
2018-11-05T22:01:47.521Z,50.60
2018-11-05T22:04:23.110Z,49.90
2018-11-05T22:06:58.486Z,49.70
2018-11-05T22:09:34.144Z,50.73
2018-11-05T22:12:09.938Z,48.03
2018-11-05T22:14:45.373Z,50.47
2018-11-05T22:17:21.055Z,51.57
2018-11-05T22:19:56.890Z,46.87
2018-11-05T22:22:33.918Z,47.80
2018-11-05T22:25:10.751Z,46.57
2018-11-05T22:27:46.867Z,47.53
2018-11-05T22:30:22.839Z,48.87
2018-11-05T22:32:58.661Z,47.40
2018-11-05T22:35:34.398Z,48.87
2018-11-05T22:38:10.123Z,50.80
2018-11-05T22:40:46.238Z,48.67
2018-11-05T22:43:21.822Z,47.33
2018-11-05T22:45:57.935Z,48.70
2018-11-05T22:48:33.871Z,46.87
2018-11-05T22:51:09.438Z,48.93
2018-11-05T22:53:45.893Z,49.30
2018-11-05T22:56:22.141Z,48.03
2018-11-05T22:58:57.696Z,50.43
2018-11-05T23:01:38.612Z,48.83
2018-11-05T23:04:14.381Z,48.27
2018-11-05T23:06:51.271Z,49.97
2018-11-05T23:09:26.835Z,47.67
2018-11-05T23:12:02.401Z,52.53
2018-11-05T23:14:38.044Z,51.87
2018-11-05T23:17:13.825Z,48.87
2018-11-05T23:19:49.317Z,50.27
2018-11-05T23:22:24.940Z,51.67
2018-11-05T23:25:00.524Z,50.50
2018-11-05T23:27:40.117Z,53.20
2018-11-05T23:30:31.887Z,52.43
2018-11-05T23:33:07.272Z,51.80
2018-11-05T23:35:42.749Z,50.63
2018-11-05T23:38:18.317Z,51.90
2018-11-05T23:40:53.881Z,52.33
2018-11-05T23:43:29.328Z,52.70
2018-11-05T23:46:04.898Z,49.70
2018-11-05T23:48:40.282Z,51.37
2018-11-05T23:51:15.884Z,51.30
2018-11-05T23:53:51.676Z,51.30
2018-11-05T23:56:27.420Z,54.87
2018-11-05T23:59:03.261Z,52.93
